Time;durP1;ratioP1;P1;durP2;ratioP2;P2;SDS_P1;SDS_P2;PMS_P1;PMS_P2;Temp;Humidity;BMP_temperature;BMP_pressure;BME280_temperature;BME280_humidity;BME280_pressure;Samples;Min_cycle;Max_cycle;Signal;HPM_P1;HPM_P2
2022/07/14 00:00:58;;;;;;;1.43;1.00;;;19.60;45.60;;;;;;4214454;28;20258;-71
2022/07/14 00:02:59;;;;;;;1.20;1.10;;;19.70;45.10;;;;;;4213742;28;20233;-71
2022/07/14 00:04:59;;;;;;;1.07;1.07;;;19.60;46.00;;;;;;4215111;28;20202;-71
2022/07/14 00:07:00;;;;;;;1.10;1.00;;;19.40;46.20;;;;;;4215064;28;20171;-71
2022/07/14 00:09:01;;;;;;;1.27;1.10;;;19.30;46.80;;;;;;4214995;28;20185;-71
2022/07/14 00:11:02;;;;;;;1.30;1.00;;;19.40;47.70;;;;;;4213908;28;20187;-71
2022/07/14 00:13:03;;;;;;;1.93;0.97;;;19.30;47.30;;;;;;4215460;28;20214;-71
2022/07/14 00:15:04;;;;;;;1.07;0.97;;;19.20;47.60;;;;;;4211892;28;20187;-72
2022/07/14 00:17:05;;;;;;;1.17;0.97;;;19.40;47.90;;;;;;4198986;28;20179;-72
2022/07/14 00:19:05;;;;;;;1.27;1.13;;;19.40;47.50;;;;;;4198327;28;20179;-72
2022/07/14 00:21:06;;;;;;;0.83;0.83;;;19.50;45.70;;;;;;4197599;28;20192;-72
2022/07/14 00:23:06;;;;;;;0.97;0.87;;;19.50;44.20;;;;;;4198493;28;20219;-72
2022/07/14 00:25:07;;;;;;;0.90;0.90;;;19.50;44.30;;;;;;4198585;28;20214;-72
2022/07/14 00:27:08;;;;;;;1.57;0.97;;;19.20;45.20;;;;;;4198524;28;20233;-72
2022/07/14 00:29:09;;;;;;;1.20;1.07;;;19.10;46.00;;;;;;4198377;28;20183;-72
2022/07/14 00:31:11;;;;;;;1.00;0.90;;;19.10;46.60;;;;;;4197621;28;20179;-72
2022/07/14 00:33:11;;;;;;;1.03;0.83;;;19.10;46.80;;;;;;4198377;28;20248;-72
2022/07/14 00:35:13;;;;;;;1.13;1.03;;;19.00;47.10;;;;;;4198233;28;20195;-71
2022/07/14 00:37:13;;;;;;;4.83;1.10;;;18.90;48.70;;;;;;4197172;28;20182;-71
2022/07/14 00:39:14;;;;;;;1.20;1.10;;;18.80;46.90;;;;;;4198542;28;20203;-72
2022/07/14 00:41:15;;;;;;;7.60;3.97;;;18.70;47.60;;;;;;4197505;28;20179;-72
2022/07/14 00:43:16;;;;;;;6.43;3.17;;;18.70;47.40;;;;;;4198471;28;20210;-72
2022/07/14 00:45:19;;;;;;;4.97;2.60;;;18.60;48.20;;;;;;4198182;28;20199;-72
2022/07/14 00:47:19;;;;;;;2.60;1.60;;;18.60;49.20;;;;;;4198548;28;20210;-72
2022/07/14 00:49:37;;;;;;;3.70;1.30;;;18.60;48.90;;;;;;4198356;28;20167;-72
2022/07/14 00:51:37;;;;;;;2.33;1.23;;;18.60;49.30;;;;;;4197621;28;20236;-73
2022/07/14 00:53:38;;;;;;;1.90;0.93;;;18.70;48.30;;;;;;4196865;28;20246;-72
2022/07/14 00:55:43;;;;;;;1.20;1.00;;;18.70;47.90;;;;;;4198264;28;20234;-72
2022/07/14 00:57:43;;;;;;;1.63;0.90;;;18.70;47.50;;;;;;4196758;28;20175;-73
2022/07/14 00:59:45;;;;;;;2.27;1.10;;;18.70;48.10;;;;;;4198075;28;20176;-73
2022/07/14 01:01:46;;;;;;;2.93;1.07;;;18.80;47.60;;;;;;4197768;28;20638;-72
2022/07/14 01:03:46;;;;;;;2.17;1.20;;;18.80;47.60;;;;;;4198169;28;20195;-72
2022/07/14 01:05:47;;;;;;;1.77;0.90;;;18.70;48.10;;;;;;4198604;28;20184;-72
2022/07/14 01:07:47;;;;;;;2.10;1.10;;;18.70;48.80;;;;;;4198275;28;20590;-73
2022/07/14 01:09:48;;;;;;;1.33;1.10;;;18.70;49.10;;;;;;4198223;28;20663;-73
2022/07/14 01:11:49;;;;;;;3.20;1.77;;;18.40;49.20;;;;;;4197805;28;20265;-73
2022/07/14 01:13:49;;;;;;;2.20;1.70;;;18.40;49.60;;;;;;4198012;28;20726;-73
2022/07/14 01:15:50;;;;;;;2.40;1.63;;;18.40;49.50;;;;;;4198296;28;20206;-73
2022/07/14 01:17:51;;;;;;;3.33;1.93;;;18.50;50.50;;;;;;4196998;28;20557;-73
2022/07/14 01:19:51;;;;;;;2.10;1.53;;;18.40;50.50;;;;;;4198043;28;20191;-73
2022/07/14 01:21:54;;;;;;;3.60;1.70;;;18.40;51.00;;;;;;4197323;28;20188;-73
2022/07/14 01:23:54;;;;;;;4.63;1.90;;;18.30;50.70;;;;;;4199898;28;20282;-73
2022/07/14 01:25:55;;;;;;;1.43;1.30;;;18.30;51.00;;;;;;4201263;28;20175;-73
2022/07/14 01:27:55;;;;;;;3.73;1.20;;;18.20;51.10;;;;;;4201650;28;20183;-73
2022/07/14 01:29:56;;;;;;;1.97;1.20;;;18.20;50.90;;;;;;4201203;28;20268;-73
2022/07/14 01:31:57;;;;;;;1.00;0.90;;;18.10;50.20;;;;;;4200753;28;20719;-73
2022/07/14 01:33:57;;;;;;;1.00;1.00;;;18.20;49.70;;;;;;4201154;28;20219;-73
2022/07/14 01:35:58;;;;;;;1.87;1.10;;;18.20;49.90;;;;;;4201118;28;20182;-73
2022/07/14 01:37:58;;;;;;;1.53;1.20;;;18.10;49.70;;;;;;4201261;28;20187;-73
2022/07/14 01:40:00;;;;;;;1.27;1.17;;;18.10;50.10;;;;;;4201139;28;20256;-73
2022/07/14 01:42:01;;;;;;;2.07;1.20;;;18.10;50.80;;;;;;4199228;28;20186;-73
2022/07/14 01:44:02;;;;;;;1.20;1.10;;;18.10;50.70;;;;;;4201138;28;20219;-73
2022/07/14 01:46:03;;;;;;;1.30;1.20;;;18.00;50.80;;;;;;4216274;28;20549;-74
2022/07/14 01:48:04;;;;;;;1.77;0.87;;;18.00;50.10;;;;;;4218025;28;20182;-74
2022/07/14 01:50:05;;;;;;;1.03;0.90;;;17.90;51.10;;;;;;4218027;28;20214;-73
2022/07/14 01:52:05;;;;;;;1.10;1.00;;;17.90;51.30;;;;;;4217235;28;20679;-74
2022/07/14 01:54:06;;;;;;;1.10;1.00;;;17.70;51.30;;;;;;4217747;28;20769;-73
2022/07/14 01:56:08;;;;;;;1.60;1.10;;;17.70;51.60;;;;;;4217924;28;20178;-73
2022/07/14 01:58:08;;;;;;;1.20;1.10;;;17.60;52.10;;;;;;4217909;28;20172;-73
2022/07/14 02:00:09;;;;;;;0.97;0.90;;;17.60;52.10;;;;;;4216811;28;20601;-73
2022/07/14 02:02:12;;;;;;;1.30;1.00;;;17.60;53.20;;;;;;4217251;28;20167;-73
2022/07/14 02:04:15;;;;;;;0.87;0.80;;;17.50;54.10;;;;;;4217618;28;20195;-74
2022/07/14 02:06:16;;;;;;;1.07;0.97;;;17.40;52.20;;;;;;4217787;28;20209;-74
2022/07/14 02:08:16;;;;;;;1.30;1.20;;;17.40;52.50;;;;;;4217571;28;20179;-74
2022/07/14 02:12:36;;;;;;;1.97;1.00;;;17.50;52.20;;;;;;4200699;28;20292;-74
2022/07/14 02:14:37;;;;;;;1.10;1.00;;;17.40;52.00;;;;;;4200711;28;20245;-74
2022/07/14 02:16:38;;;;;;;1.33;1.10;;;17.40;52.00;;;;;;4200994;28;20178;-74
2022/07/14 02:18:38;;;;;;;1.10;1.10;;;17.40;52.20;;;;;;4200926;28;20305;-74
2022/07/14 02:20:39;;;;;;;1.17;1.03;;;17.40;52.30;;;;;;4200917;28;20211;-74
2022/07/14 02:22:40;;;;;;;1.90;1.00;;;17.30;52.60;;;;;;4198227;28;20687;-75
2022/07/14 02:24:41;;;;;;;4.43;1.43;;;17.30;52.50;;;;;;4201076;28;20673;-75
2022/07/14 02:26:42;;;;;;;1.10;1.00;;;17.20;52.80;;;;;;4201311;28;20182;-75
2022/07/14 02:28:43;;;;;;;1.27;1.17;;;17.20;53.00;;;;;;4201310;28;20180;-75
2022/07/14 02:30:45;;;;;;;1.47;1.00;;;17.10;53.50;;;;;;4203761;28;20255;-74
2022/07/14 02:32:46;;;;;;;1.10;1.00;;;17.20;53.60;;;;;;4200877;28;20845;-75
2022/07/14 02:34:46;;;;;;;1.03;0.97;;;17.10;54.00;;;;;;4200300;28;20199;-74
2022/07/14 02:36:47;;;;;;;1.47;1.10;;;17.10;53.80;;;;;;4201084;28;20172;-75
2022/07/14 02:38:48;;;;;;;1.07;1.00;;;17.00;54.70;;;;;;4213739;28;20582;-74
2022/07/14 02:40:48;;;;;;;1.90;1.10;;;16.90;55.10;;;;;;4212974;28;20210;-74
2022/07/14 02:42:49;;;;;;;1.10;1.00;;;16.90;54.70;;;;;;4217959;28;20195;-76
2022/07/14 02:44:49;;;;;;;6.03;1.53;;;16.80;54.20;;;;;;4217998;28;20203;-75
2022/07/14 02:46:50;;;;;;;2.00;1.10;;;16.80;54.70;;;;;;4216370;28;20185;-75
2022/07/14 02:48:50;;;;;;;1.40;0.97;;;16.80;54.70;;;;;;4212738;28;20754;-75
2022/07/14 02:50:56;;;;;;;1.73;0.87;;;16.80;54.80;;;;;;4200337;28;20188;-75
2022/07/14 02:52:57;;;;;;;0.90;0.87;;;16.80;54.80;;;;;;4200584;28;20196;-74
2022/07/14 02:54:58;;;;;;;1.10;1.00;;;16.60;55.50;;;;;;4199369;28;20666;-75
2022/07/14 02:56:58;;;;;;;1.73;1.00;;;16.60;55.80;;;;;;4200774;28;20262;-75
2022/07/14 02:58:59;;;;;;;1.87;1.00;;;16.60;55.60;;;;;;4200631;28;20191;-75
2022/07/14 03:00:59;;;;;;;2.63;1.03;;;16.50;55.80;;;;;;4200150;28;20180;-76
2022/07/14 03:03:01;;;;;;;1.00;0.83;;;16.50;56.50;;;;;;4200554;28;20655;-75
2022/07/14 03:05:02;;;;;;;2.17;1.03;;;16.40;56.60;;;;;;4200487;28;20191;-76
2022/07/14 03:07:02;;;;;;;1.20;1.10;;;16.40;56.60;;;;;;4200512;28;20187;-76
2022/07/14 03:09:03;;;;;;;1.87;1.10;;;16.40;57.30;;;;;;4198933;28;20194;-76
2022/07/14 03:11:04;;;;;;;1.50;1.00;;;16.30;57.70;;;;;;4199694;28;20187;-76
2022/07/14 03:13:04;;;;;;;2.73;1.13;;;16.30;58.80;;;;;;4200262;28;20210;-76
2022/07/14 03:15:07;;;;;;;1.20;1.10;;;16.20;58.60;;;;;;4200377;28;20242;-76
2022/07/14 03:17:07;;;;;;;1.03;0.90;;;16.20;58.40;;;;;;4199268;28;20266;-76
2022/07/14 03:19:08;;;;;;;1.00;1.00;;;16.20;58.60;;;;;;4200111;28;20211;-76
2022/07/14 03:21:11;;;;;;;1.30;1.20;;;16.20;58.30;;;;;;4199571;28;20191;-76
2022/07/14 03:23:11;;;;;;;1.33;1.00;;;16.30;58.00;;;;;;4199078;28;20255;-76
2022/07/14 03:25:12;;;;;;;0.80;0.80;;;16.30;57.70;;;;;;4200075;28;20559;-76
2022/07/14 03:27:12;;;;;;;1.63;1.00;;;16.40;58.10;;;;;;4200177;28;20176;-76
2022/07/14 03:29:13;;;;;;;1.63;1.00;;;16.40;58.20;;;;;;4200072;28;20190;-77
2022/07/14 03:31:14;;;;;;;0.97;0.90;;;16.40;58.90;;;;;;4199428;28;20564;-76
2022/07/14 03:33:14;;;;;;;1.23;1.13;;;16.30;59.20;;;;;;4200013;28;20290;-75
2022/07/14 03:35:15;;;;;;;0.93;0.93;;;16.40;58.90;;;;;;4198919;28;20202;-76
2022/07/14 03:37:15;;;;;;;1.33;0.93;;;16.40;58.60;;;;;;4200151;28;20186;-75
2022/07/14 03:39:16;;;;;;;1.30;1.10;;;16.40;59.20;;;;;;4198625;28;20184;-76
2022/07/14 03:41:17;;;;;;;3.07;1.00;;;16.40;59.10;;;;;;4199595;28;20466;-75
2022/07/14 03:43:17;;;;;;;1.20;1.10;;;16.40;58.90;;;;;;4199810;28;20180;-77
2022/07/14 03:45:18;;;;;;;3.17;1.30;;;16.40;58.40;;;;;;4213686;28;20268;-76
2022/07/14 03:47:18;;;;;;;1.93;1.00;;;16.40;58.50;;;;;;4216111;28;20183;-76
2022/07/14 03:49:19;;;;;;;1.20;1.10;;;16.40;58.50;;;;;;4216796;28;20179;-76
2022/07/14 03:51:19;;;;;;;1.03;0.93;;;16.40;58.40;;;;;;4216057;28;20179;-76
2022/07/14 03:53:20;;;;;;;1.03;1.00;;;16.40;58.80;;;;;;4215318;28;20307;-76
2022/07/14 03:55:21;;;;;;;4.50;1.17;;;16.30;58.20;;;;;;4215117;28;20210;-76
2022/07/14 03:57:22;;;;;;;2.20;1.43;;;16.30;58.30;;;;;;4213242;28;20186;-76
2022/07/14 03:59:22;;;;;;;1.17;1.03;;;16.20;58.20;;;;;;4212007;28;20795;-77
2022/07/14 04:01:23;;;;;;;1.17;1.03;;;16.20;58.90;;;;;;4213540;28;20178;-76
2022/07/14 04:03:23;;;;;;;1.43;0.90;;;16.20;59.50;;;;;;4214032;28;20197;-76
2022/07/14 04:05:24;;;;;;;2.00;1.20;;;16.20;59.60;;;;;;4211467;28;20294;-76
2022/07/14 04:07:24;;;;;;;1.17;1.07;;;16.20;59.40;;;;;;4212735;28;20185;-76
2022/07/14 04:09:25;;;;;;;1.37;1.10;;;16.20;58.90;;;;;;4212683;28;20209;-76
2022/07/14 04:11:25;;;;;;;1.20;1.10;;;16.20;59.10;;;;;;4212086;28;20181;-75
2022/07/14 04:13:29;;;;;;;1.07;0.90;;;16.10;59.60;;;;;;4208566;28;20224;-77
2022/07/14 04:15:30;;;;;;;1.73;1.10;;;16.20;59.10;;;;;;4212798;28;20182;-76
2022/07/14 04:17:31;;;;;;;2.00;1.23;;;16.20;58.80;;;;;;4212823;28;20190;-76
2022/07/14 04:19:31;;;;;;;2.07;1.00;;;16.20;59.00;;;;;;4212629;28;20262;-76
2022/07/14 04:21:32;;;;;;;1.13;1.10;;;16.30;58.10;;;;;;4212122;28;20201;-76
2022/07/14 04:23:32;;;;;;;1.00;1.00;;;16.30;57.70;;;;;;4212529;28;20755;-76
2022/07/14 04:25:34;;;;;;;1.10;1.00;;;16.40;57.10;;;;;;4212624;28;20555;-76
2022/07/14 04:27:34;;;;;;;1.83;1.13;;;16.50;56.20;;;;;;4212875;28;20171;-75
2022/07/14 04:29:35;;;;;;;1.07;1.00;;;16.60;56.30;;;;;;4212683;28;20218;-76
2022/07/14 04:31:36;;;;;;;1.60;1.00;;;16.60;56.00;;;;;;4211866;28;20270;-76
2022/07/14 04:33:37;;;;;;;1.30;1.20;;;16.70;56.80;;;;;;4211081;28;20215;-76
2022/07/14 04:35:38;;;;;;;1.30;1.10;;;16.70;55.70;;;;;;4212679;28;20179;-76
2022/07/14 04:37:39;;;;;;;2.80;1.20;;;16.80;56.80;;;;;;4211063;28;20183;-75
2022/07/14 04:39:39;;;;;;;1.20;1.10;;;16.90;56.90;;;;;;4198730;28;20197;-75
2022/07/14 04:41:40;;;;;;;2.60;1.07;;;16.90;56.30;;;;;;4211908;28;20186;-76
2022/07/14 04:43:40;;;;;;;1.13;1.00;;;16.90;57.30;;;;;;4212589;28;20554;-75
2022/07/14 04:45:41;;;;;;;1.27;0.90;;;16.90;57.40;;;;;;4213278;28;20179;-76
2022/07/14 04:47:41;;;;;;;1.10;1.00;;;16.90;56.50;;;;;;4212454;28;20175;-76
2022/07/14 04:52:01;;;;;;;2.37;1.20;;;16.90;56.50;;;;;;4211964;28;20251;-75
2022/07/14 04:54:02;;;;;;;1.10;1.00;;;16.90;56.80;;;;;;4211161;28;20210;-76
2022/07/14 04:56:03;;;;;;;4.50;1.30;;;16.90;57.50;;;;;;4212419;28;20186;-77
2022/07/14 04:58:03;;;;;;;1.10;1.00;;;16.80;57.50;;;;;;4214556;28;20658;-76
2022/07/14 05:00:05;;;;;;;2.40;1.30;;;16.80;57.50;;;;;;4215864;28;20209;-76
2022/07/14 05:02:06;;;;;;;1.17;1.00;;;16.60;58.20;;;;;;4215229;28;20556;-77
2022/07/14 05:04:06;;;;;;;1.90;1.10;;;16.60;57.80;;;;;;4215919;28;20218;-76
2022/07/14 05:06:07;;;;;;;1.17;0.80;;;16.60;57.50;;;;;;4215756;28;20222;-75
2022/07/14 05:08:07;;;;;;;1.97;1.10;;;16.60;57.80;;;;;;4215744;28;20179;-76
2022/07/14 05:10:08;;;;;;;1.10;1.00;;;16.60;58.20;;;;;;4215677;28;20254;-76
2022/07/14 05:12:11;;;;;;;1.47;1.10;;;16.50;58.60;;;;;;4215012;28;20175;-76
2022/07/14 05:14:12;;;;;;;1.17;1.10;;;16.50;58.20;;;;;;4215563;28;20704;-76
2022/07/14 05:16:13;;;;;;;1.27;1.00;;;16.60;57.40;;;;;;4215613;28;20206;-75
2022/07/14 05:18:13;;;;;;;2.27;1.20;;;16.60;57.80;;;;;;4215583;28;20183;-76
2022/07/14 05:20:14;;;;;;;0.90;0.90;;;16.50;58.10;;;;;;4215482;28;20767;-76
2022/07/14 05:22:15;;;;;;;1.30;1.20;;;16.50;57.90;;;;;;4214840;28;20595;-75
2022/07/14 05:24:15;;;;;;;1.10;1.00;;;16.60;58.10;;;;;;4215255;28;20203;-75
2022/07/14 05:26:17;;;;;;;2.40;1.10;;;16.50;57.80;;;;;;4215370;28;20624;-75
2022/07/14 05:28:17;;;;;;;1.73;1.10;;;16.60;56.40;;;;;;4215326;28;20194;-76
2022/07/14 05:30:18;;;;;;;2.40;1.10;;;16.60;56.60;;;;;;4215298;28;20250;-76
2022/07/14 05:32:18;;;;;;;1.43;1.13;;;16.70;56.60;;;;;;4214441;28;20261;-76
2022/07/14 05:34:19;;;;;;;1.83;1.23;;;16.70;56.90;;;;;;4215376;28;20822;-76
2022/07/14 05:36:21;;;;;;;1.57;1.03;;;16.70;56.90;;;;;;4215273;28;20308;-76
2022/07/14 05:38:23;;;;;;;1.90;1.10;;;16.80;56.10;;;;;;4215219;28;20171;-76
2022/07/14 05:40:24;;;;;;;1.30;1.13;;;16.80;56.50;;;;;;4215148;28;20209;-75
2022/07/14 05:42:24;;;;;;;1.70;0.97;;;16.80;55.70;;;;;;4214558;28;20167;-75
2022/07/14 05:44:25;;;;;;;1.77;1.10;;;16.90;55.50;;;;;;4214961;28;20190;-75
2022/07/14 05:46:26;;;;;;;1.37;1.13;;;16.90;55.80;;;;;;4215086;28;20171;-76
2022/07/14 05:48:26;;;;;;;1.87;1.10;;;17.00;54.70;;;;;;4214949;28;20545;-75
2022/07/14 05:50:27;;;;;;;2.10;1.00;;;17.00;55.70;;;;;;4214945;28;20175;-75
2022/07/14 05:52:30;;;;;;;1.17;1.07;;;17.00;55.40;;;;;;4214042;28;20209;-75
2022/07/14 05:54:31;;;;;;;1.70;1.00;;;17.10;54.50;;;;;;4213722;28;20229;-75
2022/07/14 05:56:31;;;;;;;1.50;1.10;;;17.20;53.90;;;;;;4215075;28;20179;-75
2022/07/14 05:58:33;;;;;;;2.33;1.30;;;17.20;53.60;;;;;;4214938;28;20658;-75
2022/07/14 06:00:34;;;;;;;2.60;1.47;;;17.30;52.70;;;;;;4213396;28;20611;-75
2022/07/14 06:02:35;;;;;;;1.30;1.10;;;17.40;52.50;;;;;;4214243;28;20225;-76
2022/07/14 06:04:35;;;;;;;3.43;1.30;;;17.50;52.00;;;;;;4209735;28;20192;-75
2022/07/14 06:06:36;;;;;;;1.43;1.00;;;17.50;52.60;;;;;;4197948;28;20184;-75
2022/07/14 06:08:37;;;;;;;1.50;1.10;;;17.60;52.10;;;;;;4197508;28;20179;-75
2022/07/14 06:10:39;;;;;;;1.30;1.20;;;17.80;50.10;;;;;;4197470;28;20183;-75
2022/07/14 06:12:40;;;;;;;1.73;1.10;;;18.00;50.90;;;;;;4197408;28;20202;-75
2022/07/14 06:14:41;;;;;;;2.33;1.30;;;17.90;51.90;;;;;;4197825;28;20233;-75
2022/07/14 06:16:43;;;;;;;1.23;1.13;;;18.00;51.20;;;;;;4197781;28;20641;-75
2022/07/14 06:18:43;;;;;;;2.50;1.10;;;18.10;51.50;;;;;;4197780;28;20594;-75
2022/07/14 06:20:44;;;;;;;2.40;1.17;;;18.20;51.00;;;;;;4208558;28;20204;-75
2022/07/14 06:22:44;;;;;;;1.87;1.37;;;18.40;51.80;;;;;;4231180;28;20179;-75
2022/07/14 06:24:45;;;;;;;4.47;1.40;;;18.60;51.60;;;;;;4231224;28;20263;-75
2022/07/14 06:26:45;;;;;;;1.93;1.10;;;18.60;51.90;;;;;;4231274;28;20600;-76
2022/07/14 06:28:49;;;;;;;1.10;1.00;;;18.70;51.60;;;;;;4231194;28;20258;-75
2022/07/14 06:30:50;;;;;;;1.70;1.20;;;18.70;50.90;;;;;;4230507;28;20680;-76
2022/07/14 06:32:50;;;;;;;1.20;1.10;;;18.80;50.60;;;;;;4231092;28;20194;-75
2022/07/14 06:34:51;;;;;;;3.63;1.10;;;19.10;48.00;;;;;;4231406;28;20187;-75
2022/07/14 06:36:51;;;;;;;2.00;1.10;;;19.40;47.50;;;;;;4231279;28;20174;-75
2022/07/14 06:38:52;;;;;;;2.13;1.10;;;19.60;46.50;;;;;;4231221;28;20166;-75
2022/07/14 06:40:52;;;;;;;1.20;1.00;;;19.70;46.40;;;;;;4230473;28;20179;-75
2022/07/14 06:42:53;;;;;;;1.20;1.10;;;19.70;46.60;;;;;;4231091;28;20561;-75
2022/07/14 06:44:53;;;;;;;3.10;1.20;;;20.00;44.80;;;;;;4231325;28;20206;-75
2022/07/14 06:46:54;;;;;;;2.90;1.50;;;20.10;45.40;;;;;;4230976;28;20257;-75
2022/07/14 06:48:55;;;;;;;1.50;1.40;;;20.30;44.50;;;;;;4229526;28;20178;-76
2022/07/14 06:51:01;;;;;;;1.50;1.40;;;20.80;42.90;;;;;;4230333;28;20182;-76
2022/07/14 06:53:02;;;;;;;3.50;1.40;;;21.30;41.80;;;;;;4230472;28;20202;-76
2022/07/14 06:55:05;;;;;;;1.97;1.20;;;21.60;40.60;;;;;;4230884;28;20198;-75
2022/07/14 06:57:06;;;;;;;1.87;1.30;;;22.00;38.30;;;;;;4230806;28;20209;-76
2022/07/14 06:59:06;;;;;;;2.10;1.00;;;22.60;36.80;;;;;;4228094;28;20182;-76
2022/07/14 07:01:07;;;;;;;1.07;1.00;;;22.90;35.80;;;;;;4203924;28;20179;-72
2022/07/14 07:03:11;;;;;;;2.30;1.00;;;23.00;36.40;;;;;;4208450;28;20179;-73
2022/07/14 07:07:31;;;;;;;2.80;1.40;;;23.60;32.30;;;;;;4209937;28;20186;-70
2022/07/14 07:09:32;;;;;;;2.73;1.20;;;24.00;32.30;;;;;;4210560;28;20179;-70
2022/07/14 07:11:32;;;;;;;1.70;1.60;;;24.10;33.10;;;;;;4208294;28;20205;-71
2022/07/14 07:13:33;;;;;;;1.90;1.20;;;24.40;30.80;;;;;;4209139;28;20210;-73
2022/07/14 07:15:37;;;;;;;2.20;1.30;;;24.70;30.10;;;;;;4208754;28;20179;-71
2022/07/14 07:17:38;;;;;;;1.37;1.10;;;24.70;30.90;;;;;;4209141;28;20182;-73
2022/07/14 07:19:38;;;;;;;1.63;0.90;;;24.80;28.50;;;;;;4210391;28;20187;-71
2022/07/14 07:21:39;;;;;;;1.17;1.07;;;25.00;28.00;;;;;;4209165;28;20210;-72
2022/07/14 07:23:44;;;;;;;3.97;1.20;;;25.00;28.00;;;;;;4209938;28;20243;-71
2022/07/14 07:25:45;;;;;;;1.00;1.00;;;25.10;27.80;;;;;;4210329;28;20646;-75
2022/07/14 07:27:45;;;;;;;1.27;1.13;;;25.20;28.00;;;;;;4208887;28;20190;-71
2022/07/14 07:29:46;;;;;;;2.50;1.00;;;25.30;27.80;;;;;;4210046;28;20269;-71
2022/07/14 07:31:46;;;;;;;0.90;0.90;;;25.50;27.30;;;;;;4208284;28;20208;-69
2022/07/14 07:33:47;;;;;;;2.10;1.00;;;25.50;28.30;;;;;;4209747;28;20689;-70
2022/07/14 07:35:48;;;;;;;1.47;1.10;;;25.50;28.30;;;;;;4208840;28;20198;-70
2022/07/14 07:37:48;;;;;;;1.07;1.07;;;25.90;28.10;;;;;;4209556;28;20209;-70
2022/07/14 07:39:49;;;;;;;1.40;1.30;;;26.00;26.60;;;;;;4209645;28;20171;-70
2022/07/14 07:41:52;;;;;;;1.07;1.00;;;26.00;27.10;;;;;;4209252;28;20528;-72
2022/07/14 07:43:53;;;;;;;1.07;1.07;;;26.20;26.70;;;;;;4209854;28;20603;-74
2022/07/14 07:45:54;;;;;;;1.20;1.10;;;26.40;25.90;;;;;;4209473;28;20186;-73
2022/07/14 07:47:55;;;;;;;3.70;2.60;;;26.60;25.80;;;;;;4209380;28;20666;-71
2022/07/14 07:49:55;;;;;;;3.80;3.60;;;26.70;25.50;;;;;;4209468;28;20198;-71
2022/07/14 07:52:00;;;;;;;1.87;1.77;;;26.60;25.60;;;;;;4208555;28;20617;-72
2022/07/14 07:54:01;;;;;;;3.00;2.80;;;26.60;25.40;;;;;;4209656;28;20726;-71
2022/07/14 07:56:01;;;;;;;1.90;1.10;;;26.70;25.30;;;;;;4209091;28;20215;-73
2022/07/14 07:58:03;;;;;;;2.37;2.27;;;26.80;25.70;;;;;;4209934;28;20228;-70
2022/07/14 08:00:05;;;;;;;1.47;1.20;;;26.80;24.60;;;;;;4209973;28;20194;-71
2022/07/14 08:02:06;;;;;;;2.07;1.97;;;26.90;25.20;;;;;;4208327;28;20226;-70
2022/07/14 08:04:07;;;;;;;1.60;1.50;;;27.10;25.10;;;;;;4206767;28;20210;-70
2022/07/14 08:06:11;;;;;;;6.70;6.30;;;27.30;24.20;;;;;;4211741;28;20203;-71
2022/07/14 08:08:12;;;;;;;1.20;1.10;;;27.30;24.10;;;;;;4211963;28;20557;-71
2022/07/14 08:10:12;;;;;;;1.60;1.30;;;27.30;24.60;;;;;;4212539;28;20674;-69
2022/07/14 08:12:13;;;;;;;1.20;1.10;;;27.30;24.50;;;;;;4211874;28;20175;-70
2022/07/14 08:16:34;;;;;;;1.20;1.10;;;27.30;24.20;;;;;;4198993;28;20185;-69
2022/07/14 08:18:34;;;;;;;2.53;1.53;;;27.10;24.40;;;;;;4212452;28;20171;-69
2022/07/14 08:20:35;;;;;;;2.07;1.97;;;27.20;25.30;;;;;;4212291;28;20191;-72
2022/07/14 08:22:37;;;;;;;1.50;1.40;;;27.30;24.70;;;;;;4211855;28;20646;-72
2022/07/14 08:24:38;;;;;;;1.20;1.10;;;27.40;24.70;;;;;;4211095;28;20199;-71
2022/07/14 08:26:39;;;;;;;2.60;1.20;;;27.40;25.00;;;;;;4212289;28;20216;-69
2022/07/14 08:28:40;;;;;;;2.23;2.03;;;27.50;24.70;;;;;;4212296;28;20167;-69
2022/07/14 08:30:41;;;;;;;3.30;1.30;;;27.40;25.10;;;;;;4212004;28;20546;-69
2022/07/14 08:32:44;;;;;;;2.00;1.33;;;27.60;25.30;;;;;;4211266;28;20179;-69
2022/07/14 08:34:45;;;;;;;1.00;0.90;;;27.70;25.40;;;;;;4212266;28;20191;-71
2022/07/14 08:36:45;;;;;;;6.07;5.77;;;27.60;24.60;;;;;;4211897;28;20235;-70
2022/07/14 08:38:46;;;;;;;1.30;1.20;;;27.40;24.60;;;;;;4212138;28;20551;-71
2022/07/14 08:40:47;;;;;;;1.23;1.13;;;27.30;24.70;;;;;;4211652;28;20179;-70
2022/07/14 08:42:50;;;;;;;1.97;1.87;;;27.00;25.00;;;;;;4212761;28;20174;-69
2022/07/14 08:44:51;;;;;;;4.70;1.20;;;27.00;25.50;;;;;;4212252;28;20234;-70
2022/07/14 08:46:53;;;;;;;3.17;3.07;;;27.10;25.50;;;;;;4212315;28;20183;-71
2022/07/14 08:48:54;;;;;;;1.10;1.10;;;27.20;25.30;;;;;;4212196;28;20175;-72
2022/07/14 08:50:56;;;;;;;7.63;7.30;;;27.10;25.40;;;;;;4210265;28;20265;-69
2022/07/14 08:52:56;;;;;;;1.43;1.13;;;27.00;24.90;;;;;;4212107;28;20207;-74
2022/07/14 08:54:58;;;;;;;3.83;1.93;;;27.10;25.40;;;;;;4211838;28;20274;-73
2022/07/14 08:56:59;;;;;;;1.03;1.03;;;27.20;24.80;;;;;;4212105;28;20203;-71
2022/07/14 08:58:59;;;;;;;3.23;1.63;;;27.10;25.40;;;;;;4212080;28;20182;-73
2022/07/14 09:01:00;;;;;;;2.87;2.67;;;27.20;25.20;;;;;;4211402;28;20264;-73
2022/07/14 09:03:00;;;;;;;1.43;1.33;;;27.20;25.10;;;;;;4210479;28;20183;-71
2022/07/14 09:05:01;;;;;;;5.67;5.33;;;27.10;24.80;;;;;;4209946;28;20304;-71
2022/07/14 09:07:02;;;;;;;1.40;1.30;;;26.90;25.70;;;;;;4211735;28;20282;-69
2022/07/14 09:09:02;;;;;;;1.13;1.13;;;26.90;25.50;;;;;;4210540;28;20268;-69
2022/07/14 09:11:03;;;;;;;1.60;1.50;;;27.10;25.30;;;;;;4211303;28;20217;-71
2022/07/14 09:13:21;;;;;;;2.67;2.47;;;27.20;24.70;;;;;;4212026;28;20213;-69
2022/07/14 09:17:53;;;;;;;2.13;1.93;;;27.30;24.80;;;;;;4211895;28;20209;-72
2022/07/14 09:20:11;;;;;;;1.57;1.43;;;27.50;24.30;;;;;;4212227;28;20174;-73
2022/07/14 09:22:11;;;;;;;4.90;4.23;;;27.40;24.30;;;;;;4211555;28;20167;-72
2022/07/14 09:24:14;;;;;;;3.23;2.93;;;27.40;24.60;;;;;;4211982;28;20264;-71
2022/07/14 09:26:19;;;;;;;3.80;3.60;;;27.40;24.90;;;;;;4211963;28;20273;-68
2022/07/14 09:28:25;;;;;;;1.80;1.70;;;27.60;24.70;;;;;;4211974;28;20209;-70
2022/07/14 09:30:26;;;;;;;3.13;3.00;;;27.50;24.30;;;;;;4212208;28;20230;-71
2022/07/14 09:32:46;;;;;;;3.47;3.33;;;27.60;24.50;;;;;;4211323;28;20657;-69
2022/07/14 09:35:00;;;;;;;1.57;1.47;;;27.80;24.10;;;;;;4211738;28;20195;-71
2022/07/14 09:37:11;;;;;;;4.73;1.50;;;27.70;24.10;;;;;;4211938;28;20166;-69
2022/07/14 09:39:12;;;;;;;2.50;2.10;;;27.70;24.10;;;;;;4211726;28;20262;-70
2022/07/14 09:41:12;;;;;;;16.60;15.77;;;27.80;24.60;;;;;;4211089;28;20726;-71
2022/07/14 09:43:14;;;;;;;1.27;1.17;;;27.80;23.90;;;;;;4211869;28;20244;-68
2022/07/14 09:45:15;;;;;;;4.17;3.87;;;27.90;24.10;;;;;;4213691;28;20207;-69
2022/07/14 09:47:16;;;;;;;2.73;2.53;;;28.00;24.10;;;;;;4214856;28;20179;-69
2022/07/14 09:49:19;;;;;;;1.30;1.20;;;28.00;23.70;;;;;;4214697;28;20557;-68
2022/07/14 09:51:20;;;;;;;1.37;1.30;;;27.90;24.00;;;;;;4214010;28;20185;-70
2022/07/14 09:53:31;;;;;;;1.30;1.20;;;28.30;24.30;;;;;;4214308;28;20238;-70
2022/07/14 09:55:32;;;;;;;2.47;2.27;;;28.40;23.70;;;;;;4214655;28;20175;-70
2022/07/14 09:57:39;;;;;;;1.83;1.73;;;28.90;23.90;;;;;;4214614;28;20710;-68
2022/07/14 10:00:02;;;;;;;2.83;1.37;;;28.80;23.00;;;;;;4214647;28;20187;-68
2022/07/14 10:02:03;;;;;;;1.47;1.10;;;28.60;23.20;;;;;;4213888;28;20534;-68
2022/07/14 10:04:03;;;;;;;4.33;4.13;;;28.70;23.10;;;;;;4214223;28;20215;-67
2022/07/14 10:06:05;;;;;;;2.77;2.60;;;28.70;22.60;;;;;;4214470;28;20236;-69
2022/07/14 10:08:07;;;;;;;16.60;15.80;;;28.90;22.60;;;;;;4209982;28;20720;-68
2022/07/14 10:10:10;;;;;;;2.97;1.40;;;29.00;22.80;;;;;;4214352;28;20186;-69
2022/07/14 10:12:11;;;;;;;1.40;1.30;;;29.00;23.40;;;;;;4213787;28;20187;-69
2022/07/14 10:14:12;;;;;;;4.67;4.40;;;29.30;22.80;;;;;;4213868;28;20308;-69
2022/07/14 10:16:14;;;;;;;1.90;1.33;;;29.40;22.70;;;;;;4214637;28;20187;-68
2022/07/14 10:18:15;;;;;;;1.43;1.33;;;29.40;22.60;;;;;;4214539;28;20179;-70
2022/07/14 10:20:16;;;;;;;3.07;2.87;;;29.70;22.50;;;;;;4214223;28;20179;-68
2022/07/14 10:22:18;;;;;;;3.77;3.57;;;29.20;22.00;;;;;;4213730;28;20649;-69
2022/07/14 10:24:20;;;;;;;4.30;4.00;;;29.10;21.70;;;;;;4214039;28;20206;-68
2022/07/14 10:26:21;;;;;;;5.87;4.97;;;29.10;22.20;;;;;;4213960;28;20649;-69
2022/07/14 10:28:22;;;;;;;14.77;14.07;;;29.30;22.00;;;;;;4214058;28;20267;-70
2022/07/14 10:30:57;;;;;;;9.90;9.20;;;29.50;21.70;;;;;;4214060;28;20569;-68
2022/07/14 10:33:26;;;;;;;7.43;7.03;;;29.80;21.40;;;;;;4214016;28;20205;-68
2022/07/14 10:35:45;;;;;;;2.20;1.97;;;29.90;21.40;;;;;;4213321;28;20205;-68
2022/07/14 10:38:14;;;;;;;5.97;5.67;;;30.30;20.40;;;;;;4213597;28;20163;-68
2022/07/14 10:40:45;;;;;;;1.50;1.40;;;30.50;20.10;;;;;;4213556;28;20248;-67
2022/07/14 10:43:05;;;;;;;3.15;2.88;;;30.10;20.20;;;;;;4214029;28;20630;-67
2022/07/14 10:45:07;;;;;;;1.60;1.50;;;30.60;20.40;;;;;;4213950;28;20211;-69